Fort Knox, KY

9:20 AM EST on December 08, 2019 (GMT -0500)
Godman Army Air Field

Weather History for KFTK - October, 2019

Change the Weather History Date:

Thursday, October 31, 2019

  Actual Average Record
Temperature  
Mean Temperature 45 °F -  
Max Temperature 57 °F 61 °F 78 °F (1999)
Min Temperature 33 °F 41 °F 31 °F (2017)
Degree Days  
Heating Degree Days 20    
Moisture  
Dew Point 43 °F    
Average Humidity 93    
Maximum Humidity 100    
Minimum Humidity 73    
Precipitation  
Precipitation 0.86 in - - ()
Sea Level Pressure  
Sea Level Pressure 29.92 in    
Wind  
Wind Speed 10 mph (WSW)    
Max Wind Speed 23 mph    
Max Gust Speed 33 mph    
Visibility 7 miles    
Events Fog , Rain , Snow    
Averages and records for this station are not official NWS values.
T = Trace of Precipitation, MM = Missing Value Source: NWS Daily Summary

Daily Weather History Graph

Daily Weather History Graph

Search for Another Location

Airport or City:

Astronomy

Oct. 31, 2019 Rise Set
Actual Time 8:08 AM EDT 6:46 PM EDT
Civil Twilight 7:40 AM EDT 7:13 PM EDT
Nautical Twilight 7:09 AM EDT 7:44 PM EDT
Astronomical Twilight 6:39 AM EDT 8:15 PM EDT
Moon 11:53 AM EDT (10/31) 9:45 PM EDT (10/31)
Length of Visible Light 11h 32m
Length of Day
10h 38m
Waxing Crescent, 15% of the Moon is Illuminated
Oct 31
Waxing Crescent
Nov 4
First Quarter
Nov 12
Full
Nov 19
Last Quarter
Nov 26
New

Hourly Weather History & Observations

Time (EDT) Temp. Windchill Dew Point Humidity Pressure Visibility Wind Dir Wind Speed Gust Speed Precip Events Conditions
12:06 AM 57.2 °F - 57.2 °F 100% 29.89 in 1.5 mi WSW 4.6 mph - N/A Rain Light Rain
12:16 AM 57.2 °F - 57.2 °F 100% 29.90 in 0.8 mi WSW 4.6 mph - N/A Rain Light Rain
12:18 AM 57.2 °F - 57.2 °F 100% 29.90 in 0.8 mi WSW 5.8 mph - N/A   Mist
12:42 AM 57.2 °F - 57.2 °F 100% 29.87 in 1.4 mi SSW 3.5 mph - N/A   Overcast
12:56 AM 56.7 °F - 56.7 °F 100% 29.86 in 1.4 mi Calm Calm - 0.00 in   Overcast
1:11 AM 57.2 °F - 57.2 °F 100% 29.86 in 1.8 mi South 3.5 mph - N/A   Overcast
1:26 AM 57.2 °F - 57.2 °F 100% 29.85 in 1.0 mi Calm Calm - N/A   Mist
1:39 AM 57.2 °F - 57.2 °F 100% 29.83 in 0.4 mi Calm Calm - N/A Fog Fog
1:54 AM 57.2 °F - 57.2 °F 100% 29.83 in 0.4 mi SSE 3.5 mph - N/A Fog Fog
1:56 AM 56.7 °F - 56.7 °F 100% 29.82 in 0.5 mi SE 3.5 mph - N/A Fog Fog
2:18 AM 57.2 °F - 57.2 °F 100% 29.80 in 0.6 mi ESE 4.6 mph - N/A Fog Fog
2:28 AM 57.2 °F - 57.2 °F 100% 29.80 in 1.1 mi SE 5.8 mph - N/A   Mist
2:33 AM 57.2 °F - 57.2 °F 100% 29.80 in 1.0 mi SE 4.6 mph - N/A   Mist
2:48 AM 57.2 °F - 57.2 °F 100% 29.79 in 1.0 mi SE 4.6 mph - N/A   Mist
2:56 AM 57.0 °F - 57.0 °F 100% 29.79 in 1.0 mi SE 5.8 mph - N/A   Mist
3:11 AM 57.2 °F - 57.2 °F 100% 29.79 in 0.5 mi SSE 4.6 mph - N/A Fog Fog
3:32 AM 57.2 °F - 57.2 °F 100% 29.78 in 0.5 mi South 3.5 mph - N/A Fog , Rain Light Rain
3:50 AM 57.2 °F - 57.2 °F 100% 29.76 in 0.6 mi SSE 4.6 mph - N/A Rain Light Rain
3:56 AM 57.4 °F - 57.4 °F 100% 29.76 in 0.9 mi SSE 4.6 mph - 0.01 in Rain Light Rain
4:08 AM 57.2 °F - 57.2 °F 100% 29.74 in 1.0 mi SE 5.8 mph - N/A Rain Light Rain
4:13 AM 57.2 °F - 57.2 °F 100% 29.74 in 1.2 mi SE 5.8 mph - N/A Rain Light Rain
4:23 AM 57.2 °F - 57.2 °F 100% 29.76 in 1.9 mi South 4.6 mph - N/A Rain Light Rain
4:38 AM 57.2 °F - 57.2 °F 100% 29.75 in 3.0 mi WSW 3.5 mph - N/A Rain Rain
4:56 AM 57.9 °F - 57.9 °F 100% 29.74 in 6.0 mi West 4.6 mph - 0.05 in Rain Light Rain
5:11 AM 57.2 °F - 57.2 °F 100% 29.73 in 4.0 mi WNW 3.5 mph - N/A Rain Light Rain
5:23 AM 57.2 °F - 57.2 °F 100% 29.71 in 5.0 mi WNW 3.5 mph - N/A Rain Light Rain
5:38 AM 57.2 °F - 57.2 °F 100% 29.71 in 5.0 mi WNW 6.9 mph - N/A Rain Light Rain
5:56 AM 57.0 °F - 57.0 °F 100% 29.71 in 7.0 mi West 11.5 mph - 0.06 in Rain Light Rain
6:30 AM 55.4 °F - 55.4 °F 100% 29.72 in 4.0 mi West 17.3 mph 21.9 mph N/A Rain Heavy Rain
6:56 AM 52.3 °F - 52.3 °F 100% 29.72 in 5.0 mi West 13.8 mph 23.0 mph 0.25 in Rain Heavy Rain
7:11 AM 51.8 °F - 51.8 °F 100% 29.71 in 2.5 mi West 11.5 mph 18.4 mph N/A Rain Heavy Rain
7:17 AM 51.8 °F - 51.8 °F 100% 29.73 in 2.5 mi West 11.5 mph 18.4 mph N/A Rain Heavy Rain
7:22 AM 50.0 °F - 50.0 °F 100% 29.75 in 2.8 mi WSW 12.7 mph 18.4 mph N/A Rain Heavy Rain
7:24 AM 50.0 °F - 50.0 °F 100% 29.73 in 2.8 mi WSW 11.5 mph - N/A Rain Heavy Rain
7:42 AM 50.0 °F - 50.0 °F 100% 29.75 in 7.0 mi West 16.1 mph - N/A Rain Rain
7:56 AM 48.0 °F - 48.0 °F 100% 29.75 in 6.0 mi West 18.4 mph 23.0 mph 0.37 in Rain Rain
8:41 AM 46.4 °F 40.4 °F 46.4 °F 100% 29.76 in 10.0 mi West 13.8 mph 25.3 mph N/A Rain Light Rain
8:55 AM 44.6 °F 37.4 °F 44.6 °F 100% 29.78 in 10.0 mi WSW 16.1 mph 23.0 mph N/A Rain Light Rain
8:56 AM 45.0 °F 37.6 °F 45.0 °F 100% 29.78 in 10.0 mi WSW 17.3 mph 23.0 mph 0.08 in Rain Light Rain
9:00 AM 44.6 °F 36.6 °F 44.6 °F 100% 29.80 in 10.0 mi WSW 19.6 mph 28.8 mph N/A Rain Light Rain
9:22 AM 44.6 °F 38.1 °F 44.6 °F 100% 29.80 in 10.0 mi WSW 13.8 mph 25.3 mph N/A Rain Light Rain
9:56 AM 43.2 °F 37.0 °F 43.2 °F 100% 29.79 in 10.0 mi WSW 11.5 mph 20.7 mph 0.03 in Rain Light Rain
9:57 AM 42.8 °F 36.6 °F 42.8 °F 100% 29.79 in 10.0 mi WSW 11.5 mph 20.7 mph N/A   Overcast
9:59 AM 42.8 °F 37.0 °F 42.8 °F 100% 29.79 in 10.0 mi WSW 10.4 mph 20.7 mph N/A Rain Light Rain
10:02 AM 42.8 °F 36.2 °F 42.8 °F 100% 29.81 in 10.0 mi WSW 12.7 mph 18.4 mph N/A Rain Light Rain
10:15 AM 42.8 °F 35.4 °F 42.8 °F 100% 29.81 in 10.0 mi West 15.0 mph 27.6 mph N/A   Overcast
10:38 AM 41.0 °F 32.5 °F 41.0 °F 100% 29.83 in 10.0 mi West 17.3 mph 28.8 mph N/A   Overcast
10:56 AM 40.6 °F 31.2 °F 40.6 °F 100% 29.85 in 10.0 mi WSW 20.7 mph 27.6 mph 0.01 in   Overcast
11:12 AM 39.2 °F 29.8 °F 39.2 °F 100% 29.86 in 10.0 mi West 18.4 mph 27.6 mph N/A   Overcast
11:44 AM 39.2 °F 29.8 °F 39.2 °F 100% 29.91 in 10.0 mi West 18.4 mph 28.8 mph N/A   Overcast
11:56 AM 37.8 °F 27.1 °F 37.8 °F 100% 29.91 in 10.0 mi WSW 21.9 mph 28.8 mph N/A   Overcast
11:59 AM 37.4 °F 27.5 °F 37.4 °F 100% 29.93 in 10.0 mi WSW 18.4 mph 28.8 mph N/A   Overcast
12:07 PM 37.4 °F 27.2 °F 37.4 °F 100% 29.93 in 9.0 mi WSW 19.6 mph 31.1 mph N/A   Overcast
12:31 PM 37.4 °F 27.8 °F 37.4 °F 100% 29.93 in 10.0 mi WSW 17.3 mph 28.8 mph N/A   Overcast
12:34 PM 37.4 °F 27.8 °F 37.4 °F 100% 29.93 in 10.0 mi WSW 17.3 mph 28.8 mph N/A   Overcast
12:35 PM 37.4 °F 27.5 °F 37.4 °F 100% 29.93 in 10.0 mi WSW 18.4 mph 26.5 mph N/A   Overcast
12:36 PM 37.4 °F 27.8 °F 37.4 °F 100% 29.93 in 10.0 mi West 17.3 mph 26.5 mph N/A   Overcast
12:51 PM 37.4 °F 27.8 °F 37.4 °F 100% 29.94 in 10.0 mi West 17.3 mph 28.8 mph N/A   Overcast
12:52 PM 37.4 °F 27.2 °F 37.4 °F 100% 29.94 in 10.0 mi West 19.6 mph 25.3 mph N/A   Overcast
12:56 PM 37.6 °F 29.1 °F 37.6 °F 100% 29.94 in 10.0 mi WSW 13.8 mph 25.3 mph 0.00 in   Overcast
1:05 PM 37.4 °F 27.2 °F 37.4 °F 100% 29.95 in 10.0 mi WSW 19.6 mph 31.1 mph N/A   Overcast
1:27 PM 37.4 °F 27.8 °F 37.4 °F 100% 29.95 in 10.0 mi WSW 17.3 mph 24.2 mph N/A   Overcast
1:31 PM 37.4 °F 26.4 °F 37.4 °F 100% 29.95 in 10.0 mi WSW 23.0 mph 29.9 mph N/A   Overcast
1:46 PM 37.4 °F 26.9 °F 37.4 °F 100% 29.95 in 10.0 mi WSW 20.7 mph 28.8 mph N/A   Overcast
1:56 PM 36.1 °F 26.5 °F 35.4 °F 97% 29.96 in 9.0 mi West 16.1 mph 27.6 mph 0.00 in   Overcast
2:14 PM 35.6 °F 27.1 °F 35.6 °F 100% 29.97 in 10.0 mi WSW 12.7 mph 27.6 mph N/A Snow Light Snow Grains
2:50 PM 35.6 °F 26.2 °F 32.0 °F 87% 29.99 in 10.0 mi WSW 15.0 mph 31.1 mph N/A   Overcast
2:56 PM 35.4 °F 25.6 °F 30.7 °F 83% 29.99 in 10.0 mi West 16.1 mph 31.1 mph 0.00 in   Overcast
3:11 PM 35.6 °F 24.2 °F 32.0 °F 87% 29.99 in 10.0 mi WSW 21.9 mph 32.2 mph N/A   Overcast
3:26 PM 35.6 °F 25.5 °F 30.2 °F 81% 30.00 in 10.0 mi WSW 17.3 mph 31.1 mph N/A   Overcast
3:40 PM 37.4 °F 28.2 °F 30.2 °F 75% 30.01 in 10.0 mi West 16.1 mph 31.1 mph N/A   Overcast
3:56 PM 36.5 °F 26.3 °F 31.3 °F 81% 30.03 in 10.0 mi West 18.4 mph 26.5 mph N/A   Overcast
4:27 PM 35.6 °F 25.9 °F 30.2 °F 81% 30.06 in 10.0 mi West 16.1 mph 28.8 mph N/A   Overcast
4:32 PM 35.6 °F 25.5 °F 30.2 °F 81% 30.06 in 10.0 mi West 17.3 mph 28.8 mph N/A Snow Light Snow Grains
4:59 PM 35.4 °F 24.6 °F 30.7 °F 83% 30.08 in 10.0 mi WSW 19.6 mph 26.5 mph 0.00 in Snow Light Snow Grains
5:12 PM 35.6 °F 24.5 °F 30.2 °F 81% 30.09 in 10.0 mi West 20.7 mph 31.1 mph N/A   Overcast
5:15 PM 35.6 °F 24.5 °F 30.2 °F 81% 30.09 in 10.0 mi WSW 20.7 mph 28.8 mph N/A   Overcast
5:34 PM 35.6 °F 24.8 °F 28.4 °F 75% 30.11 in 10.0 mi West 19.6 mph 33.4 mph N/A   Overcast
5:54 PM 35.6 °F 24.8 °F 28.4 °F 75% 30.13 in 10.0 mi West 19.6 mph 27.6 mph N/A   Overcast
5:56 PM 35.1 °F 24.5 °F 28.6 °F 77% 30.13 in 10.0 mi West 18.4 mph 27.6 mph 0.00 in   Overcast
6:11 PM 35.6 °F 25.2 °F 28.4 °F 75% 30.14 in 10.0 mi West 18.4 mph 31.1 mph N/A   Overcast
6:32 PM 33.8 °F 23.5 °F 28.4 °F 81% 30.16 in 10.0 mi WSW 16.1 mph 28.8 mph N/A   Overcast
6:54 PM 33.8 °F 22.8 °F 28.4 °F 81% 30.18 in 10.0 mi WSW 18.4 mph 25.3 mph N/A   Overcast
6:56 PM 34.3 °F 23.2 °F 27.9 °F 77% 30.18 in 10.0 mi West 19.6 mph 25.3 mph N/A   Overcast
7:17 PM 33.8 °F 24.8 °F 28.4 °F 81% 30.20 in 10.0 mi West 12.7 mph 26.5 mph N/A   Overcast
7:44 PM 33.8 °F 25.3 °F 26.6 °F 75% 30.22 in 10.0 mi West 11.5 mph 21.9 mph N/A   Overcast
7:56 PM 34.2 °F 24.0 °F 26.4 °F 73% 30.23 in 10.0 mi West 16.1 mph 24.2 mph N/A   Overcast
8:49 PM 33.8 °F 25.8 °F 26.6 °F 75% 30.26 in 10.0 mi West 10.4 mph 18.4 mph N/A   Overcast
8:56 PM 34.0 °F 25.5 °F 26.6 °F 74% 30.26 in 10.0 mi West 11.5 mph 18.4 mph N/A   Overcast
9:56 PM 33.6 °F 23.3 °F 25.9 °F 73% 30.27 in 10.0 mi West 16.1 mph 19.6 mph N/A   Overcast
10:15 PM 33.8 °F 24.8 °F 26.6 °F 75% 30.29 in 10.0 mi West 12.7 mph 19.6 mph N/A   Overcast
10:34 PM 33.8 °F 25.3 °F 26.6 °F 75% 30.31 in 10.0 mi West 11.5 mph - N/A   Overcast
10:56 PM 33.4 °F 25.9 °F 26.4 °F 75% 30.31 in 10.0 mi West 9.2 mph - N/A   Overcast
11:56 PM 33.3 °F 24.6 °F 25.5 °F 73% 30.31 in 10.0 mi West 11.5 mph - N/A   Overcast